Terminal Aerodrome Forecast
Issued by NWS Springfield, MO

Home | Current Version | Previous Version | Text Only | Print | Product List | Glossary On
Versions: 1 2 3 4 5 6 7 8 9 10 11 12 13 14 15 16 17 18
966
FTUS43 KSGF 221132
TAFSGF
TAF
KSGF 221132Z 2212/2312 16004KT P6SM BKN200
     FM230000 15004KT P6SM BKN110
     FM230500 18004KT P6SM VCTS BKN090CB
     FM231100 24004KT P6SM BKN025=

USA.gov is the U.S. government's official web portal to all federal, state and local government web resources and services.